Thailine 5 — 9WFF5 — position and weather

sailwx.info

Track history (hours):
 
Tides and Currents Weather Stations Pressure Air Temp Water Temp Dewpoint Dewpoint Depression Visibility Wind Speed Wind Dir Waves Ship Positions

Thailine 5

Last reported at 2016-Apr-27 08:30 UTC. Time now 2016-May-01 23:12 UTC.
Position N 34°37' E 135°01'.

; draft 5.4 m.

Type: Cargo ship. MMSI: 533399000.

Date/timePositionNaut miles runAvg speedWind from/ knotsBaromVisibWave heightAir tempDewpointWater temp
2016-Apr-27 08:30N 34°37' E 135°01'7 7.0
2016-Apr-27 07:33N 34°35' E 135°09'10 9.9
2016-Apr-27 06:33N 34°33' E 135°20'3 0.5
2016-Apr-27 01:30N 34°31' E 135°23'0 0.0
2016-Apr-26 22:27N 34°31' E 135°23'3 2.8
2016-Apr-26 21:32N 34°31' E 135°20'2 2.4
2016-Apr-26 20:32N 34°30' E 135°17'9 8.9
2016-Apr-26 19:33N 34°25' E 135°09'2 1.6
2016-Apr-26 18:32N 34°24' E 135°07'5 5.2
2016-Apr-26 17:31N 34°21' E 135°02'9 9.6
2016-Apr-26 16:33N 34°12' E 134°59'1110.4
2016-Apr-26 15:32N 34°02' E 134°59'229 8.2
2016-Apr-25 11:33N 34°59' E 139°28'1110.3
2016-Apr-25 10:26N 35°05' E 139°40'8 9.6
2016-Apr-25 09:33N 35°12' E 139°46'9 9.2
2016-Apr-25 08:33N 35°21' E 139°42'7 6.8
2016-Apr-25 07:33N 35°27' E 139°41'0 0.0
2016-Apr-25 06:33N 35°27' E 139°41'0 0.0
2016-Apr-25 05:33N 35°27' E 139°41'0 0.0
2016-Apr-25 04:33N 35°27' E 139°41'0 0.0
2016-Apr-25 03:33N 35°27' E 139°41'0 0.0
2016-Apr-25 02:33N 35°27' E 139°41'0 0.0
2016-Apr-25 01:33N 35°27' E 139°41'0 0.0
2016-Apr-25 00:33N 35°27' E 139°41'0 0.0
2016-Apr-24 23:33N 35°27' E 139°41'0 0.0
2016-Apr-24 22:33N 35°27' E 139°41'2 1.9
2016-Apr-24 21:32N 35°26' E 139°42'0 0.1
2016-Apr-24 20:32N 35°26' E 139°42'0 0.0
2016-Apr-24 19:32N 35°26' E 139°42'0 0.0
2016-Apr-24 18:32N 35°26' E 139°42'0 0.0
2016-Apr-24 17:32N 35°26' E 139°42'0 0.0
2016-Apr-24 16:32N 35°26' E 139°42'0 0.0
2016-Apr-24 15:32N 35°26' E 139°42'0 0.0
2016-Apr-24 14:32N 35°26' E 139°42'0 0.0
2016-Apr-24 13:32N 35°26' E 139°42'0 0.0
2016-Apr-24 12:32N 35°26' E 139°42'0 0.0
2016-Apr-24 11:32N 35°26' E 139°42'0 0.0
2016-Apr-24 10:32N 35°26' E 139°42'0 0.0
2016-Apr-24 09:32N 35°26' E 139°42'0 0.0
2016-Apr-24 08:32N 35°26' E 139°42'0 0.0
2016-Apr-24 07:32N 35°26' E 139°42'0 0.0
2016-Apr-24 06:32N 35°26' E 139°42'0 0.0
2016-Apr-24 05:32N 35°26' E 139°42'0 0.0
2016-Apr-24 04:32N 35°26' E 139°42'0 0.1
2016-Apr-24 03:32N 35°26' E 139°42'0 0.0
2016-Apr-24 02:32N 35°26' E 139°42'0 0.0
2016-Apr-24 01:32N 35°26' E 139°42'0 0.0
2016-Apr-24 00:32N 35°26' E 139°42'0 0.0
2016-Apr-23 23:32N 35°26' E 139°42'0 0.0
2016-Apr-23 22:32N 35°26' E 139°42'0 0.0
2016-Apr-23 21:32N 35°26' E 139°42'0 0.1
2016-Apr-23 20:32N 35°26' E 139°42'0 0.1
2016-Apr-23 19:32N 35°26' E 139°42'0 0.1
2016-Apr-23 18:32N 35°26' E 139°42'0 0.1
2016-Apr-23 17:32N 35°26' E 139°42'0 0.1
2016-Apr-23 16:32N 35°26' E 139°42'0 0.0
2016-Apr-23 15:32N 35°26' E 139°42'0 0.1
2016-Apr-23 14:32N 35°26' E 139°42'0 0.1
2016-Apr-23 13:32N 35°26' E 139°42'0 0.0
2016-Apr-23 12:32N 35°26' E 139°42'0 0.0
2016-Apr-23 11:32N 35°26' E 139°42'0 0.0
2016-Apr-23 10:32N 35°26' E 139°42'0 0.2
2016-Apr-23 09:33N 35°26' E 139°42'6 6.3
2016-Apr-23 08:33N 35°28' E 139°49'9 9.4
2016-Apr-23 07:33N 35°35' E 139°57'6 5.3
2016-Apr-23 06:31N 35°40' E 139°58'0 0.0
2016-Apr-23 05:31N 35°40' E 139°58'0 0.0
2016-Apr-23 04:13N 35°40' E 139°58'0 0.0
2016-Apr-23 03:31N 35°40' E 139°58'0 0.0
2016-Apr-23 02:31N 35°40' E 139°58'0 0.0
2016-Apr-23 01:31N 35°40' E 139°58'0 0.0
2016-Apr-23 00:31N 35°40' E 139°58'0 0.0
2016-Apr-22 23:19N 35°40' E 139°58'0 0.0
2016-Apr-22 22:32N 35°40' E 139°58'3 3.2
2016-Apr-22 21:33N 35°37' E 139°59'3 2.3
2016-Apr-22 20:07N 35°34' E 140°00'0 0.0
2016-Apr-22 19:28N 35°34' E 140°00'0 0.0
2016-Apr-22 18:22N 35°34' E 140°00'0 0.0
2016-Apr-22 17:28N 35°34' E 140°00'0 0.0
2016-Apr-22 16:28N 35°34' E 140°00'0 0.0
2016-Apr-22 15:31N 35°34' E 140°00'0 0.0
2016-Apr-22 14:10N 35°34' E 140°00'0 0.0
2016-Apr-22 13:28N 35°34' E 140°00'0 0.0
2016-Apr-22 12:16N 35°34' E 140°00'0 0.0
2016-Apr-22 11:28N 35°34' E 140°00'0 0.0
2016-Apr-22 10:28N 35°34' E 140°00'0 0.0
2016-Apr-22 09:33N 35°34' E 140°00'0 0.0
2016-Apr-22 08:33N 35°34' E 140°00'1 0.8
2016-Apr-22 07:33N 35°34' E 140°01'5 4.3
2016-Apr-22 06:29N 35°36' E 140°06'0 0.0
2016-Apr-22 05:31N 35°36' E 140°06'0 0.0
2016-Apr-22 04:29N 35°36' E 140°06'0 0.0
2016-Apr-22 03:23N 35°36' E 140°06'0 0.0
2016-Apr-22 02:28N 35°36' E 140°06'0 0.0
2016-Apr-22 01:32N 35°36' E 140°06'0 0.0
2016-Apr-22 00:28N 35°36' E 140°06'0 0.0
2016-Apr-21 23:29N 35°36' E 140°06'0 0.0
2016-Apr-21 22:22N 35°36' E 140°06'0 0.0
2016-Apr-21 21:28N 35°36' E 140°06'0 0.0
2016-Apr-21 20:28N 35°36' E 140°06'0 0.0
2016-Apr-21 19:28N 35°36' E 140°06'0 0.0
2016-Apr-21 18:28N 35°36' E 140°06'0 0.0
2016-Apr-21 17:23N 35°36' E 140°06'0 0.0
2016-Apr-21 16:16N 35°36' E 140°06'0 0.0
2016-Apr-21 15:28N 35°36' E 140°06'0 0.0
2016-Apr-21 14:16N 35°36' E 140°06'0 0.0
2016-Apr-21 13:04N 35°36' E 140°06'0 0.0
2016-Apr-21 12:04N 35°36' E 140°06'0 0.0
2016-Apr-21 11:29N 35°36' E 140°06'0 0.0
2016-Apr-21 10:28N 35°36' E 140°06'0 0.0
2016-Apr-21 09:10N 35°36' E 140°06'0 0.0
2016-Apr-21 08:28N 35°36' E 140°06'0 0.0
2016-Apr-21 07:28N 35°36' E 140°06'0 0.0
2016-Apr-21 06:28N 35°36' E 140°06'0 0.0
2016-Apr-21 05:29N 35°36' E 140°06'0 0.0
2016-Apr-21 04:28N 35°36' E 140°06'0 0.0
2016-Apr-21 03:05N 35°36' E 140°06'0 0.0
2016-Apr-21 02:26N 35°36' E 140°06'0 0.0
2016-Apr-21 01:22N 35°36' E 140°06'0 0.0
2016-Apr-21 00:28N 35°36' E 140°06'0 0.0
2016-Apr-20 23:31N 35°36' E 140°06'0 0.4
2016-Apr-20 22:33N 35°35' E 140°06'4 3.8
2016-Apr-20 21:33N 35°35' E 140°02'0 0.0
2016-Apr-20 20:33N 35°35' E 140°02'0 0.3
2016-Apr-20 19:32N 35°35' E 140°01'7 7.3
2016-Apr-20 18:33N 35°31' E 139°54'10 9.7
2016-Apr-20 17:33N 35°24' E 139°46'9 9.0
2016-Apr-20 16:33N 35°15' E 139°47'10 9.7
2016-Apr-20 15:33N 35°05' E 139°46'10 9.1
2016-Apr-20 14:29N 34°55' E 139°44'11 8.6
2016-Apr-20 13:14N 34°52' E 139°56'6 8.4
2016-Apr-20 12:33N 34°54' E 140°03'8 8.4
2016-Apr-20 11:33N 34°58' E 140°12'10 7.2
2016-Apr-20 10:12N 35°03' E 140°22'  
Track history (hours):
 
Tides and Currents Weather Stations Pressure Air Temp Water Temp Dewpoint Dewpoint Depression Visibility Wind Speed Wind Dir Waves Ship Positions

Thailine 5

Last reported at 2016-Apr-27 08:30 UTC. Time now 2016-May-01 23:12 UTC.
Position N 34°37' E 135°01'.

; draft 5.4 m.

Type: Cargo ship. MMSI: 533399000.

Date/timePositionNaut miles runAvg speedWind from/ knotsBaromVisibWave heightAir tempDewpointWater temp
2016-Apr-27 08:30N 34°37' E 135°01'7 7.0
2016-Apr-27 07:33N 34°35' E 135°09'10 9.9
2016-Apr-27 06:33N 34°33' E 135°20'3 0.5
2016-Apr-27 01:30N 34°31' E 135°23'0 0.0
2016-Apr-26 22:27N 34°31' E 135°23'3 2.8
2016-Apr-26 21:32N 34°31' E 135°20'2 2.4
2016-Apr-26 20:32N 34°30' E 135°17'9 8.9
2016-Apr-26 19:33N 34°25' E 135°09'2 1.6
2016-Apr-26 18:32N 34°24' E 135°07'5 5.2
2016-Apr-26 17:31N 34°21' E 135°02'9 9.6
2016-Apr-26 16:33N 34°12' E 134°59'1110.4
2016-Apr-26 15:32N 34°02' E 134°59'229 8.2
2016-Apr-25 11:33N 34°59' E 139°28'1110.3
2016-Apr-25 10:26N 35°05' E 139°40'8 9.6
2016-Apr-25 09:33N 35°12' E 139°46'9 9.2
2016-Apr-25 08:33N 35°21' E 139°42'7 6.8
2016-Apr-25 07:33N 35°27' E 139°41'0 0.0
2016-Apr-25 06:33N 35°27' E 139°41'0 0.0
2016-Apr-25 05:33N 35°27' E 139°41'0 0.0
2016-Apr-25 04:33N 35°27' E 139°41'0 0.0
2016-Apr-25 03:33N 35°27' E 139°41'0 0.0
2016-Apr-25 02:33N 35°27' E 139°41'0 0.0
2016-Apr-25 01:33N 35°27' E 139°41'0 0.0
2016-Apr-25 00:33N 35°27' E 139°41'0 0.0
2016-Apr-24 23:33N 35°27' E 139°41'0 0.0
2016-Apr-24 22:33N 35°27' E 139°41'2 1.9
2016-Apr-24 21:32N 35°26' E 139°42'0 0.1
2016-Apr-24 20:32N 35°26' E 139°42'0 0.0
2016-Apr-24 19:32N 35°26' E 139°42'0 0.0
2016-Apr-24 18:32N 35°26' E 139°42'0 0.0
2016-Apr-24 17:32N 35°26' E 139°42'0 0.0
2016-Apr-24 16:32N 35°26' E 139°42'0 0.0
2016-Apr-24 15:32N 35°26' E 139°42'0 0.0
2016-Apr-24 14:32N 35°26' E 139°42'0 0.0
2016-Apr-24 13:32N 35°26' E 139°42'0 0.0
2016-Apr-24 12:32N 35°26' E 139°42'0 0.0
2016-Apr-24 11:32N 35°26' E 139°42'0 0.0
2016-Apr-24 10:32N 35°26' E 139°42'0 0.0
2016-Apr-24 09:32N 35°26' E 139°42'0 0.0
2016-Apr-24 08:32N 35°26' E 139°42'0 0.0
2016-Apr-24 07:32N 35°26' E 139°42'0 0.0
2016-Apr-24 06:32N 35°26' E 139°42'0 0.0
2016-Apr-24 05:32N 35°26' E 139°42'0 0.0
2016-Apr-24 04:32N 35°26' E 139°42'0 0.1
2016-Apr-24 03:32N 35°26' E 139°42'0 0.0
2016-Apr-24 02:32N 35°26' E 139°42'0 0.0
2016-Apr-24 01:32N 35°26' E 139°42'0 0.0
2016-Apr-24 00:32N 35°26' E 139°42'0 0.0
2016-Apr-23 23:32N 35°26' E 139°42'0 0.0
2016-Apr-23 22:32N 35°26' E 139°42'0 0.0
2016-Apr-23 21:32N 35°26' E 139°42'0 0.1
2016-Apr-23 20:32N 35°26' E 139°42'0 0.1
2016-Apr-23 19:32N 35°26' E 139°42'0 0.1
2016-Apr-23 18:32N 35°26' E 139°42'0 0.1
2016-Apr-23 17:32N 35°26' E 139°42'0 0.1
2016-Apr-23 16:32N 35°26' E 139°42'0 0.0
2016-Apr-23 15:32N 35°26' E 139°42'0 0.1
2016-Apr-23 14:32N 35°26' E 139°42'0 0.1
2016-Apr-23 13:32N 35°26' E 139°42'0 0.0
2016-Apr-23 12:32N 35°26' E 139°42'0 0.0
2016-Apr-23 11:32N 35°26' E 139°42'0 0.0
2016-Apr-23 10:32N 35°26' E 139°42'0 0.2
2016-Apr-23 09:33N 35°26' E 139°42'6 6.3
2016-Apr-23 08:33N 35°28' E 139°49'9 9.4
2016-Apr-23 07:33N 35°35' E 139°57'6 5.3
2016-Apr-23 06:31N 35°40' E 139°58'0 0.0
2016-Apr-23 05:31N 35°40' E 139°58'0 0.0
2016-Apr-23 04:13N 35°40' E 139°58'0 0.0
2016-Apr-23 03:31N 35°40' E 139°58'0 0.0
2016-Apr-23 02:31N 35°40' E 139°58'0 0.0
2016-Apr-23 01:31N 35°40' E 139°58'0 0.0
2016-Apr-23 00:31N 35°40' E 139°58'0 0.0
2016-Apr-22 23:19N 35°40' E 139°58'0 0.0
2016-Apr-22 22:32N 35°40' E 139°58'3 3.2
2016-Apr-22 21:33N 35°37' E 139°59'3 2.3
2016-Apr-22 20:07N 35°34' E 140°00'0 0.0
2016-Apr-22 19:28N 35°34' E 140°00'0 0.0
2016-Apr-22 18:22N 35°34' E 140°00'0 0.0
2016-Apr-22 17:28N 35°34' E 140°00'0 0.0
2016-Apr-22 16:28N 35°34' E 140°00'0 0.0
2016-Apr-22 15:31N 35°34' E 140°00'0 0.0
2016-Apr-22 14:10N 35°34' E 140°00'0 0.0
2016-Apr-22 13:28N 35°34' E 140°00'0 0.0
2016-Apr-22 12:16N 35°34' E 140°00'0 0.0
2016-Apr-22 11:28N 35°34' E 140°00'0 0.0
2016-Apr-22 10:28N 35°34' E 140°00'0 0.0
2016-Apr-22 09:33N 35°34' E 140°00'0 0.0
2016-Apr-22 08:33N 35°34' E 140°00'1 0.8
2016-Apr-22 07:33N 35°34' E 140°01'5 4.3
2016-Apr-22 06:29N 35°36' E 140°06'0 0.0
2016-Apr-22 05:31N 35°36' E 140°06'0 0.0
2016-Apr-22 04:29N 35°36' E 140°06'0 0.0
2016-Apr-22 03:23N 35°36' E 140°06'0 0.0
2016-Apr-22 02:28N 35°36' E 140°06'0 0.0
2016-Apr-22 01:32N 35°36' E 140°06'0 0.0
2016-Apr-22 00:28N 35°36' E 140°06'0 0.0
2016-Apr-21 23:29N 35°36' E 140°06'0 0.0
2016-Apr-21 22:22N 35°36' E 140°06'0 0.0
2016-Apr-21 21:28N 35°36' E 140°06'0 0.0
2016-Apr-21 20:28N 35°36' E 140°06'0 0.0
2016-Apr-21 19:28N 35°36' E 140°06'0 0.0
2016-Apr-21 18:28N 35°36' E 140°06'0 0.0
2016-Apr-21 17:23N 35°36' E 140°06'0 0.0
2016-Apr-21 16:16N 35°36' E 140°06'0 0.0
2016-Apr-21 15:28N 35°36' E 140°06'0 0.0
2016-Apr-21 14:16N 35°36' E 140°06'0 0.0
2016-Apr-21 13:04N 35°36' E 140°06'0 0.0
2016-Apr-21 12:04N 35°36' E 140°06'0 0.0
2016-Apr-21 11:29N 35°36' E 140°06'0 0.0
2016-Apr-21 10:28N 35°36' E 140°06'0 0.0
2016-Apr-21 09:10N 35°36' E 140°06'0 0.0
2016-Apr-21 08:28N 35°36' E 140°06'0 0.0
2016-Apr-21 07:28N 35°36' E 140°06'0 0.0
2016-Apr-21 06:28N 35°36' E 140°06'0 0.0
2016-Apr-21 05:29N 35°36' E 140°06'0 0.0
2016-Apr-21 04:28N 35°36' E 140°06'0 0.0
2016-Apr-21 03:05N 35°36' E 140°06'0 0.0
2016-Apr-21 02:26N 35°36' E 140°06'0 0.0
2016-Apr-21 01:22N 35°36' E 140°06'0 0.0
2016-Apr-21 00:28N 35°36' E 140°06'0 0.0
2016-Apr-20 23:31N 35°36' E 140°06'0 0.4
2016-Apr-20 22:33N 35°35' E 140°06'4 3.8
2016-Apr-20 21:33N 35°35' E 140°02'0 0.0
2016-Apr-20 20:33N 35°35' E 140°02'0 0.3
2016-Apr-20 19:32N 35°35' E 140°01'7 7.3
2016-Apr-20 18:33N 35°31' E 139°54'10 9.7
2016-Apr-20 17:33N 35°24' E 139°46'9 9.0
2016-Apr-20 16:33N 35°15' E 139°47'10 9.7
2016-Apr-20 15:33N 35°05' E 139°46'10 9.1
2016-Apr-20 14:29N 34°55' E 139°44'11 8.6
2016-Apr-20 13:14N 34°52' E 139°56'6 8.4
2016-Apr-20 12:33N 34°54' E 140°03'8 8.4
2016-Apr-20 11:33N 34°58' E 140°12'10 7.2
2016-Apr-20 10:12N 35°03' E 140°22'  

Dump ship's entire track history